Time,TemperatureF,DewpointF,PressureIn,WindDirection,WindDirectionDegrees,WindSpeedMPH,WindSpeedGustMPH,Humidity,HourlyPrecipIn,Conditions,Clouds,dailyrainin,SolarRadiationWatts/m^2,SoftwareType,DateUTC
2013-10-24 00:13:00,30.0,28.0,-100.00,NW,322,3.0,7.0,94,0.00,,,0.11,0.000000,,2013-10-24 05:13:00,
2013-10-24 00:22:00,30.0,28.0,-100.00,NW,322,3.0,7.0,94,0.00,,,0.11,0.000000,,2013-10-24 05:22:00,
2013-10-24 00:33:00,30.0,28.0,-100.00,NW,322,3.0,7.0,94,0.00,,,0.11,0.000000,,2013-10-24 05:33:00,
2013-10-24 01:12:00,30.0,28.0,-100.00,NW,320,3.0,7.0,93,0.00,,,0.11,0.000000,,2013-10-24 06:12:00,
2013-10-24 01:22:00,30.0,28.0,-100.00,NW,320,3.0,7.0,93,0.00,,,0.11,0.000000,,2013-10-24 06:22:00,
2013-10-24 01:32:00,30.0,28.0,-100.00,NW,320,3.0,7.0,93,0.00,,,0.11,0.000000,,2013-10-24 06:32:00,
2013-10-24 02:12:00,30.0,28.0,-100.00,NW,324,3.0,8.0,94,0.00,,,0.11,0.000000,,2013-10-24 07:12:00,
2013-10-24 02:22:00,30.0,28.0,-100.00,NW,324,3.0,8.0,94,0.00,,,0.11,0.000000,,2013-10-24 07:22:00,
2013-10-24 02:32:00,30.0,28.0,-100.00,NW,324,3.0,8.0,94,0.00,,,0.11,0.000000,,2013-10-24 07:32:00,
2013-10-24 03:11:00,30.0,28.0,-100.00,NW,315,3.0,7.0,94,0.00,,,0.11,0.000000,,2013-10-24 08:11:00,
2013-10-24 03:22:00,30.0,28.0,-100.00,NW,315,3.0,7.0,94,0.00,,,0.11,0.000000,,2013-10-24 08:22:00,
2013-10-24 03:32:00,30.0,28.0,-100.00,NW,315,3.0,7.0,94,0.00,,,0.11,0.000000,,2013-10-24 08:32:00,
2013-10-24 04:12:00,30.0,29.0,-100.00,WNW,286,2.0,4.0,95,0.00,,,0.11,0.000000,,2013-10-24 09:12:00,
2013-10-24 04:22:00,30.0,29.0,-100.00,WNW,286,2.0,4.0,95,0.00,,,0.11,0.000000,,2013-10-24 09:22:00,
2013-10-24 04:33:00,30.0,29.0,-100.00,WNW,286,2.0,4.0,95,0.00,,,0.11,0.000000,,2013-10-24 09:33:00,
2013-10-24 05:12:00,30.0,29.0,-100.00,WNW,293,1.0,5.0,95,0.00,,,0.11,0.000000,,2013-10-24 10:12:00,
2013-10-24 05:23:00,30.0,29.0,-100.00,WNW,293,1.0,5.0,95,0.00,,,0.11,0.000000,,2013-10-24 10:23:00,
2013-10-24 05:33:00,30.0,29.0,-100.00,WNW,293,1.0,5.0,95,0.00,,,0.11,0.000000,,2013-10-24 10:33:00,
2013-10-24 06:12:00,29.0,28.0,-100.00,West,270,0.0,6.0,95,0.00,,,0.11,0.000000,,2013-10-24 11:12:00,
2013-10-24 06:22:00,29.0,28.0,-100.00,West,270,0.0,6.0,95,0.00,,,0.11,0.000000,,2013-10-24 11:22:00,
2013-10-24 06:33:00,29.0,28.0,-100.00,West,270,0.0,6.0,95,0.00,,,0.11,0.000000,,2013-10-24 11:33:00,
2013-10-24 07:12:00,29.0,28.0,-100.00,West,276,1.0,5.0,96,0.00,,,0.11,0.000000,,2013-10-24 12:12:00,
2013-10-24 07:22:00,29.0,28.0,-100.00,West,276,1.0,5.0,96,0.00,,,0.11,0.000000,,2013-10-24 12:22:00,
2013-10-24 07:32:00,29.0,28.0,-100.00,West,276,1.0,5.0,96,0.00,,,0.11,0.000000,,2013-10-24 12:32:00,
2013-10-24 08:12:00,30.0,29.0,-100.00,NNW,339,4.0,11.0,96,0.00,,,0.11,1.000000,,2013-10-24 13:12:00,
2013-10-24 08:22:00,30.0,29.0,-100.00,NNW,339,4.0,11.0,96,0.00,,,0.11,1.000000,,2013-10-24 13:22:00,
2013-10-24 08:32:00,30.0,29.0,-100.00,NNW,339,4.0,11.0,96,0.00,,,0.11,1.000000,,2013-10-24 13:32:00,
2013-10-24 09:11:00,31.0,30.0,-100.00,NNW,346,4.0,8.0,95,0.00,,,0.11,9.000000,,2013-10-24 14:11:00,
2013-10-24 09:22:00,31.0,30.0,-100.00,NNW,346,4.0,8.0,95,0.00,,,0.11,9.000000,,2013-10-24 14:22:00,
2013-10-24 09:32:00,31.0,30.0,-100.00,NNW,346,4.0,8.0,95,0.00,,,0.11,9.000000,,2013-10-24 14:32:00,
2013-10-24 10:11:00,33.0,30.0,-100.00,NNW,329,5.0,10.0,90,0.00,,,0.11,40.000000,,2013-10-24 15:11:00,
2013-10-24 10:21:00,33.0,30.0,-100.00,NNW,329,5.0,10.0,90,0.00,,,0.11,40.000000,,2013-10-24 15:21:00,
2013-10-24 10:33:00,33.0,30.0,-100.00,NNW,329,5.0,10.0,90,0.00,,,0.11,40.000000,,2013-10-24 15:33:00,
2013-10-24 11:13:00,32.0,30.0,-100.00,NNE,21,6.0,9.0,92,0.04,,,0.15,106.000000,,2013-10-24 16:13:00,
2013-10-24 11:23:00,32.0,30.0,-100.00,NNE,21,6.0,9.0,92,0.04,,,0.15,106.000000,,2013-10-24 16:23:00,
2013-10-24 11:32:00,32.0,30.0,-100.00,NNE,21,6.0,9.0,92,0.04,,,0.15,106.000000,,2013-10-24 16:32:00,
2013-10-24 12:12:00,37.0,31.0,-100.00,NNE,18,6.0,13.0,80,0.06,,,0.16,310.000000,,2013-10-24 17:12:00,
2013-10-24 12:22:00,37.0,31.0,-100.00,NNE,18,6.0,13.0,80,0.06,,,0.16,310.000000,,2013-10-24 17:22:00,
2013-10-24 12:34:00,37.0,31.0,-100.00,NNE,18,6.0,13.0,80,0.06,,,0.16,310.000000,,2013-10-24 17:34:00,
2013-10-24 13:12:00,33.0,31.0,-100.00,NNW,340,5.0,14.0,93,0.01,,,0.13,280.000000,,2013-10-24 18:12:00,
2013-10-24 13:23:00,33.0,31.0,-100.00,NNW,340,5.0,14.0,93,0.01,,,0.13,280.000000,,2013-10-24 18:23:00,
2013-10-24 13:32:00,33.0,31.0,-100.00,NNW,340,5.0,14.0,93,0.01,,,0.13,280.000000,,2013-10-24 18:32:00,
2013-10-24 14:11:00,33.0,31.0,-100.00,NNW,335,2.0,9.0,91,0.02,,,-99.99,188.000000,,2013-10-24 19:11:00,
2013-10-24 14:22:00,33.0,31.0,-100.00,NNW,335,2.0,9.0,91,0.02,,,-99.99,188.000000,,2013-10-24 19:22:00,
2013-10-24 14:32:00,33.0,31.0,-100.00,NNW,335,2.0,9.0,91,0.02,,,-99.99,188.000000,,2013-10-24 19:32:00,
2013-10-24 15:11:00,36.0,33.0,-100.00,North,350,3.0,9.0,88,0.04,,,0.18,180.000000,,2013-10-24 20:11:00,
2013-10-24 15:23:00,36.0,33.0,-100.00,North,350,3.0,9.0,88,0.04,,,0.18,180.000000,,2013-10-24 20:23:00,
2013-10-24 15:32:00,36.0,33.0,-100.00,North,350,3.0,9.0,88,0.04,,,0.18,180.000000,,2013-10-24 20:32:00,
2013-10-24 16:12:00,34.0,31.0,-100.00,NNW,344,5.0,14.0,89,0.01,,,0.18,160.000000,,2013-10-24 21:12:00,
2013-10-24 16:22:00,34.0,31.0,-100.00,NNW,344,5.0,14.0,89,0.01,,,0.18,160.000000,,2013-10-24 21:22:00,
2013-10-24 16:34:00,34.0,31.0,-100.00,NNW,344,5.0,14.0,89,0.01,,,0.18,160.000000,,2013-10-24 21:34:00,
2013-10-24 17:14:00,33.0,31.0,-100.00,NNW,332,0.0,6.0,93,0.00,,,0.18,75.000000,,2013-10-24 22:14:00,
2013-10-24 17:24:00,33.0,31.0,-100.00,NNW,332,0.0,6.0,93,0.00,,,0.18,75.000000,,2013-10-24 22:24:00,
2013-10-24 17:34:00,33.0,31.0,-100.00,NNW,332,0.0,6.0,93,0.00,,,0.18,75.000000,,2013-10-24 22:34:00,
2013-10-24 18:13:00,32.0,30.0,-100.00,West,279,3.0,7.0,93,0.00,,,0.18,36.000000,,2013-10-24 23:13:00,
2013-10-24 18:22:00,32.0,30.0,-100.00,West,279,3.0,7.0,93,0.00,,,0.18,36.000000,,2013-10-24 23:22:00,
2013-10-24 18:34:00,32.0,30.0,-100.00,West,279,3.0,7.0,93,0.00,,,0.18,36.000000,,2013-10-24 23:34:00,
2013-10-24 19:12:00,32.0,30.0,-100.00,West,274,2.0,7.0,94,0.00,,,0.18,3.000000,,2013-10-25 00:12:00,
2013-10-24 19:22:00,32.0,30.0,-100.00,West,274,2.0,7.0,94,0.00,,,0.18,3.000000,,2013-10-25 00:22:00,
2013-10-24 19:33:00,32.0,30.0,-100.00,West,274,2.0,7.0,94,0.00,,,0.18,3.000000,,2013-10-25 00:33:00,
2013-10-24 20:12:00,31.0,29.0,-100.00,West,279,2.0,7.0,93,0.00,,,0.18,0.000000,,2013-10-25 01:12:00,
2013-10-24 20:22:00,31.0,29.0,-100.00,West,279,2.0,7.0,93,0.00,,,0.18,0.000000,,2013-10-25 01:22:00,
2013-10-24 20:32:00,31.0,29.0,-100.00,West,279,2.0,7.0,93,0.00,,,0.18,0.000000,,2013-10-25 01:32:00,
2013-10-24 21:12:00,31.0,29.0,-100.00,WSW,249,3.0,6.0,91,0.00,,,0.18,0.000000,,2013-10-25 02:12:00,
2013-10-24 21:23:00,31.0,29.0,-100.00,WSW,249,3.0,6.0,91,0.00,,,0.18,0.000000,,2013-10-25 02:23:00,
2013-10-24 21:32:00,31.0,29.0,-100.00,WSW,249,3.0,6.0,91,0.00,,,0.18,0.000000,,2013-10-25 02:32:00,
2013-10-24 22:12:00,31.0,28.0,-100.00,WSW,252,2.0,7.0,89,0.00,,,0.18,0.000000,,2013-10-25 03:12:00,
2013-10-24 22:23:00,31.0,28.0,-100.00,WSW,252,2.0,7.0,89,0.00,,,0.18,0.000000,,2013-10-25 03:23:00,
2013-10-24 22:34:00,31.0,28.0,-100.00,WSW,252,2.0,7.0,89,0.00,,,0.18,0.000000,,2013-10-25 03:34:00,
2013-10-24 23:14:00,30.0,28.0,-100.00,SE,136,0.0,5.0,91,0.00,,,0.18,0.000000,,2013-10-25 04:14:00,
2013-10-24 23:24:00,30.0,28.0,-100.00,SE,136,0.0,5.0,91,0.00,,,0.18,0.000000,,2013-10-25 04:24:00,
2013-10-24 23:34:00,30.0,28.0,-100.00,SE,136,0.0,5.0,91,0.00,,,0.18,0.000000,,2013-10-25 04:34:00,